Mare Island — WDC2198 — position and weather

sailwx.info

Track history (hours):
 
Tides and Currents Weather Stations Pressure Air Temp Water Temp Dewpoint Dewpoint Depression Visibility Wind Speed Wind Dir Waves Ship Positions

Mare Island

Owner: San Francisco Bay Area Water Emergency Transportation Authority, Vallejo, CA. More information available from US FCC via Universal Licensing System and Coast Guard Vessel Documentation Center.

Last reported at 2018-Aug-15 12:11 UTC. Time now 2018-Aug-16 08:44 UTC.
Position N 38°06' W 122°16'.

Length 42 m; draft 3 m.

Type: Passenger vessel. MMSI: 366989380.

Date/timePositionNaut miles runAvg speedWind from/ knotsBaromVisibWave heightAir tempDewpointWater temp
2018-Aug-15 12:11N 38°06' W 122°16'0 0.0
2018-Aug-14 17:06N 38°06' W 122°16'0 0.0
2018-Aug-14 16:56N 38°06' W 122°16'613.2
2018-Aug-14 16:30N 38°02' W 122°21'1428.0
2018-Aug-14 16:00N 37°48' W 122°24'2 3.7
2018-Aug-14 15:31N 37°50' W 122°24'1530.3
2018-Aug-14 15:01N 38°04' W 122°17'2 4.8
2018-Aug-14 14:30N 38°06' W 122°16'817.0
2018-Aug-14 14:00N 38°00' W 122°24'1325.2
2018-Aug-14 13:30N 37°48' W 122°24'1121.7
2018-Aug-14 13:00N 37°58' W 122°26'11 1.5
2018-Aug-14 05:44N 38°06' W 122°16'0 0.0
2018-Aug-14 05:15N 38°06' W 122°16'0 0.0
2018-Aug-14 04:28N 38°06' W 122°16'0 0.0
2018-Aug-14 01:10N 38°06' W 122°16'0 0.0
2018-Aug-14 01:00N 38°06' W 122°16'0 0.0
2018-Aug-13 04:59N 38°06' W 122°16'613.0
2018-Aug-13 04:30N 38°02' W 122°21'1427.7
2018-Aug-13 04:00N 37°48' W 122°24'1 2.9
2018-Aug-13 03:30N 37°49' W 122°25'918.4
2018-Aug-13 03:00N 37°58' W 122°26'1223.6
2018-Aug-13 02:31N 38°06' W 122°16'0 0.0
2018-Aug-13 02:01N 38°06' W 122°16'1 1.0
2018-Aug-13 01:30N 38°06' W 122°15'1223.2
2018-Aug-13 01:00N 37°57' W 122°26'1019.6
2018-Aug-13 00:30N 37°48' W 122°24'1 2.4
2018-Aug-13 00:00N 37°49' W 122°25'1122.7
2018-Aug-12 23:30N 37°60' W 122°25'919.1
2018-Aug-12 23:01N 38°06' W 122°16'0 0.6
2018-Aug-12 22:29N 38°06' W 122°16'0 0.0
2018-Aug-12 21:06N 38°06' W 122°16'0 2.4
2018-Aug-12 21:00N 38°06' W 122°16'2 3.5
2018-Aug-12 20:30N 38°05' W 122°15'1529.6
2018-Aug-12 20:00N 37°52' W 122°24'4 7.9
2018-Aug-12 19:31N 37°48' W 122°23'1427.5
2018-Aug-12 19:00N 38°02' W 122°22'6 6.0
2018-Aug-12 17:56N 38°06' W 122°16'818.3
2018-Aug-12 17:31N 38°01' W 122°23'1325.5
2018-Aug-12 17:00N 37°48' W 122°24'1 2.4
2018-Aug-12 16:30N 37°49' W 122°25'1020.8
2018-Aug-12 16:01N 37°59' W 122°26'1015.2
2018-Aug-12 15:19N 38°06' W 122°16'0 0.0
2018-Aug-12 05:21N 38°06' W 122°16'1 3.3
2018-Aug-12 05:00N 38°05' W 122°15'1326.7
2018-Aug-12 04:30N 37°54' W 122°25'713.2
2018-Aug-12 04:01N 37°48' W 122°23'2 3.0
2018-Aug-12 03:31N 37°49' W 122°25'1427.1
2018-Aug-12 03:01N 38°02' W 122°21'611.0
2018-Aug-12 02:30N 38°06' W 122°16'0 0.0
2018-Aug-12 02:00N 38°06' W 122°16'1 1.8
2018-Aug-12 01:30N 38°05' W 122°15'1223.9
2018-Aug-12 01:01N 37°57' W 122°26'918.4
2018-Aug-12 00:30N 37°48' W 122°24'1 2.5
2018-Aug-12 00:01N 37°49' W 122°25'1224.2
2018-Aug-11 23:30N 38°01' W 122°24'815.5
2018-Aug-11 22:59N 38°06' W 122°16'0 0.2
2018-Aug-11 21:13N 38°06' W 122°16'0 0.6
2018-Aug-11 20:40N 38°06' W 122°16'2 9.1
2018-Aug-11 20:30N 38°05' W 122°15'1529.8
2018-Aug-11 20:00N 37°52' W 122°24'4 8.3
2018-Aug-11 19:31N 37°48' W 122°24'1224.3
2018-Aug-11 19:01N 37°60' W 122°24'918.1
2018-Aug-11 18:30N 38°06' W 122°16'1 0.9
2018-Aug-11 17:52N 38°05' W 122°15'720.9
2018-Aug-11 17:30N 38°01' W 122°23'1326.3
2018-Aug-11 17:00N 37°48' W 122°24'1 2.4
2018-Aug-11 16:30N 37°49' W 122°25'1122.9
2018-Aug-11 16:00N 38°00' W 122°25'918.2
2018-Aug-11 15:30N 38°06' W 122°16'0 0.0
2018-Aug-11 07:37N 38°06' W 122°16'0 2.6
2018-Aug-11 07:30N 38°06' W 122°16'3 5.6
2018-Aug-11 07:00N 38°03' W 122°17'1530.6
2018-Aug-11 06:30N 37°49' W 122°23'2 4.4
2018-Aug-11 06:00N 37°47' W 122°23'0 0.0
2018-Aug-11 05:30N 37°47' W 122°23'0 0.0
2018-Aug-11 05:00N 37°47' W 122°23'917.3
2018-Aug-11 04:30N 37°55' W 122°27'1427.5
2018-Aug-11 04:00N 38°05' W 122°15'1 2.4
2018-Aug-11 03:27N 38°06' W 122°16'2 4.1
2018-Aug-11 03:01N 38°05' W 122°15'1427.7
2018-Aug-11 02:30N 37°53' W 122°25'5 9.4
2018-Aug-11 02:01N 37°49' W 122°24'2 4.2
2018-Aug-11 01:31N 37°50' W 122°25'1530.7
2018-Aug-11 01:01N 38°04' W 122°16'2 4.1
2018-Aug-11 00:30N 38°06' W 122°16'714.3
2018-Aug-11 00:00N 38°01' W 122°22'1326.5
2018-Aug-10 23:30N 37°48' W 122°24'2 3.3
2018-Aug-10 23:01N 37°49' W 122°24'1529.2
2018-Aug-10 22:31N 38°03' W 122°18'3 6.1
2018-Aug-10 21:59N 38°06' W 122°16'0 0.7
2018-Aug-10 21:30N 38°06' W 122°16'0 0.0
2018-Aug-10 21:00N 38°06' W 122°16'0 0.0
2018-Aug-10 20:30N 38°06' W 122°16'0 0.0
2018-Aug-10 20:00N 38°06' W 122°16'0 0.1
2018-Aug-10 19:29N 38°06' W 122°16'1 1.4
2018-Aug-10 18:50N 38°05' W 122°15'721.5
2018-Aug-10 18:31N 38°01' W 122°22'1325.6
2018-Aug-10 18:00N 37°49' W 122°25'1 2.4
2018-Aug-10 17:30N 37°48' W 122°24'1326.4
2018-Aug-10 17:00N 38°01' W 122°23'7 9.8
2018-Aug-10 16:15N 38°06' W 122°16'1 5.2
2018-Aug-10 15:59N 38°05' W 122°15'1328.2
2018-Aug-10 15:30N 37°54' W 122°25'713.0
2018-Aug-10 15:00N 37°48' W 122°24'1223.0
2018-Aug-10 14:30N 37°59' W 122°25'1018.5
2018-Aug-10 13:58N 38°06' W 122°16'0 0.0
2018-Aug-10 08:00N 38°06' W 122°16'0 0.0
2018-Aug-10 07:28N 38°06' W 122°16'0 0.0
2018-Aug-10 07:00N 38°06' W 122°16'0 0.0
2018-Aug-10 06:30N 38°06' W 122°16'0 0.0
2018-Aug-10 05:03N 38°06' W 122°16'0 0.0
2018-Aug-10 05:00N 38°06' W 122°16'0 0.0
2018-Aug-10 04:30N 38°06' W 122°16'0 0.0
2018-Aug-10 04:00N 38°06' W 122°16'0 0.0
2018-Aug-10 03:30N 38°06' W 122°16'0 0.0
2018-Aug-10 03:00N 38°06' W 122°16'0 0.0
2018-Aug-10 02:26N 38°06' W 122°16'0 0.7
2018-Aug-10 02:00N 38°06' W 122°16'613.1
2018-Aug-10 01:31N 38°01' W 122°22'1427.4
2018-Aug-10 01:00N 37°48' W 122°24'3 6.3
2018-Aug-10 00:31N 37°51' W 122°24'1529.8
2018-Aug-10 00:01N 38°04' W 122°16'2 4.0
2018-Aug-09 23:30N 38°06' W 122°16'714.2
2018-Aug-09 23:00N 38°01' W 122°22'1326.7
2018-Aug-09 22:30N 37°48' W 122°24'1 2.5
2018-Aug-09 22:01N 37°49' W 122°25'1121.1
2018-Aug-09 21:31N 37°59' W 122°26'1013.2
2018-Aug-09 20:43N 38°06' W 122°16'2 1.2
2018-Aug-09 19:27N 38°05' W 122°15'1328.8
2018-Aug-09 19:01N 37°56' W 122°26'815.8
2018-Aug-09 18:30N 37°48' W 122°24'1325.5
2018-Aug-09 18:00N 38°00' W 122°24'810.3
2018-Aug-09 17:12N 38°06' W 122°16'0 0.0
2018-Aug-09 16:59N 38°06' W 122°16'0 0.7
2018-Aug-09 16:29N 38°06' W 122°16'1225.5
2018-Aug-09 16:00N 37°56' W 122°26'917.6
2018-Aug-09 15:30N 37°48' W 122°23'510.4
2018-Aug-09 15:00N 37°48' W 122°17'510.7
2018-Aug-09 14:31N 37°48' W 122°24'1122.8
2018-Aug-09 14:00N 37°59' W 122°26'10 1.0
2018-Aug-09 03:17N 38°06' W 122°16'0 0.0
2018-Aug-09 02:53N 38°06' W 122°16'0 0.0
2018-Aug-09 02:29N 38°06' W 122°16'0 0.5
2018-Aug-09 01:54N 38°06' W 122°16'615.1
2018-Aug-09 01:30N 38°02' W 122°21'1427.8
2018-Aug-09 01:00N 37°48' W 122°24'2 3.3
2018-Aug-09 00:30N 37°49' W 122°24'1529.7
2018-Aug-09 00:00N 38°03' W 122°18'3 5.1
2018-Aug-08 23:24N 38°06' W 122°16'614.0
2018-Aug-08 23:00N 38°02' W 122°21'1428.6
2018-Aug-08 22:30N 37°48' W 122°24'1 2.4
2018-Aug-08 22:00N 37°49' W 122°25'918.6
2018-Aug-08 21:31N 37°58' W 122°27'12 5.2
2018-Aug-08 19:15N 38°06' W 122°16'1 1.8
2018-Aug-08 18:48N 38°05' W 122°15'621.0
2018-Aug-08 18:30N 38°02' W 122°22'1326.7
2018-Aug-08 18:01N 37°49' W 122°25'1 2.4
2018-Aug-08 17:30N 37°48' W 122°24'1326.4
2018-Aug-08 17:00N 38°01' W 122°23'7 7.2
2018-Aug-08 16:00N 38°05' W 122°15'1327.2
2018-Aug-08 15:30N 37°54' W 122°25'713.3
2018-Aug-08 15:00N 37°48' W 122°24'1225.0
2018-Aug-08 14:31N 37°60' W 122°24'912.7
2018-Aug-08 13:48N 38°06' W 122°16'0 0.0
2018-Aug-08 04:36N 38°06' W 122°16'0 2.5
2018-Aug-08 04:30N 38°06' W 122°16'1 2.1
2018-Aug-08 04:00N 38°05' W 122°15'1326.5
2018-Aug-08 03:30N 37°55' W 122°25'713.7
2018-Aug-08 03:00N 37°48' W 122°24'816.7
2018-Aug-08 02:31N 37°56' W 122°27'1326.2
2018-Aug-08 02:00N 38°05' W 122°15'1 1.9
2018-Aug-08 01:30N 38°06' W 122°16'1 1.3
2018-Aug-08 01:00N 38°05' W 122°15'1224.0
2018-Aug-08 00:31N 37°57' W 122°26'918.6
2018-Aug-08 00:00N 37°48' W 122°24'1223.9
2018-Aug-07 23:31N 37°60' W 122°25'1019.0
2018-Aug-07 23:00N 38°06' W 122°16'0 0.2
2018-Aug-07 21:02N 38°06' W 122°16'0 2.8
2018-Aug-07 21:00N 38°06' W 122°16'3 6.1
2018-Aug-07 20:31N 38°03' W 122°17'3 5.9
2018-Aug-07 20:01N 38°04' W 122°13'1529.6
2018-Aug-07 19:30N 37°51' W 122°24'713.5
2018-Aug-07 19:01N 37°45' W 122°21'1326.6
2018-Aug-07 18:30N 37°58' W 122°27'714.0
2018-Aug-07 18:00N 38°02' W 122°20'5 9.6
2018-Aug-07 17:30N 38°05' W 122°15'  
Track history (hours):
 
Tides and Currents Weather Stations Pressure Air Temp Water Temp Dewpoint Dewpoint Depression Visibility Wind Speed Wind Dir Waves Ship Positions

Mare Island

Owner: San Francisco Bay Area Water Emergency Transportation Authority, Vallejo, CA. More information available from US FCC via Universal Licensing System and Coast Guard Vessel Documentation Center.

Last reported at 2018-Aug-15 12:11 UTC. Time now 2018-Aug-16 08:44 UTC.
Position N 38°06' W 122°16'.

Length 42 m; draft 3 m.

Type: Passenger vessel. MMSI: 366989380.

Date/timePositionNaut miles runAvg speedWind from/ knotsBaromVisibWave heightAir tempDewpointWater temp
2018-Aug-15 12:11N 38°06' W 122°16'0 0.0
2018-Aug-14 17:06N 38°06' W 122°16'0 0.0
2018-Aug-14 16:56N 38°06' W 122°16'613.2
2018-Aug-14 16:30N 38°02' W 122°21'1428.0
2018-Aug-14 16:00N 37°48' W 122°24'2 3.7
2018-Aug-14 15:31N 37°50' W 122°24'1530.3
2018-Aug-14 15:01N 38°04' W 122°17'2 4.8
2018-Aug-14 14:30N 38°06' W 122°16'817.0
2018-Aug-14 14:00N 38°00' W 122°24'1325.2
2018-Aug-14 13:30N 37°48' W 122°24'1121.7
2018-Aug-14 13:00N 37°58' W 122°26'11 1.5
2018-Aug-14 05:44N 38°06' W 122°16'0 0.0
2018-Aug-14 05:15N 38°06' W 122°16'0 0.0
2018-Aug-14 04:28N 38°06' W 122°16'0 0.0
2018-Aug-14 01:10N 38°06' W 122°16'0 0.0
2018-Aug-14 01:00N 38°06' W 122°16'0 0.0
2018-Aug-13 04:59N 38°06' W 122°16'613.0
2018-Aug-13 04:30N 38°02' W 122°21'1427.7
2018-Aug-13 04:00N 37°48' W 122°24'1 2.9
2018-Aug-13 03:30N 37°49' W 122°25'918.4
2018-Aug-13 03:00N 37°58' W 122°26'1223.6
2018-Aug-13 02:31N 38°06' W 122°16'0 0.0
2018-Aug-13 02:01N 38°06' W 122°16'1 1.0
2018-Aug-13 01:30N 38°06' W 122°15'1223.2
2018-Aug-13 01:00N 37°57' W 122°26'1019.6
2018-Aug-13 00:30N 37°48' W 122°24'1 2.4
2018-Aug-13 00:00N 37°49' W 122°25'1122.7
2018-Aug-12 23:30N 37°60' W 122°25'919.1
2018-Aug-12 23:01N 38°06' W 122°16'0 0.6
2018-Aug-12 22:29N 38°06' W 122°16'0 0.0
2018-Aug-12 21:06N 38°06' W 122°16'0 2.4
2018-Aug-12 21:00N 38°06' W 122°16'2 3.5
2018-Aug-12 20:30N 38°05' W 122°15'1529.6
2018-Aug-12 20:00N 37°52' W 122°24'4 7.9
2018-Aug-12 19:31N 37°48' W 122°23'1427.5
2018-Aug-12 19:00N 38°02' W 122°22'6 6.0
2018-Aug-12 17:56N 38°06' W 122°16'818.3
2018-Aug-12 17:31N 38°01' W 122°23'1325.5
2018-Aug-12 17:00N 37°48' W 122°24'1 2.4
2018-Aug-12 16:30N 37°49' W 122°25'1020.8
2018-Aug-12 16:01N 37°59' W 122°26'1015.2
2018-Aug-12 15:19N 38°06' W 122°16'0 0.0
2018-Aug-12 05:21N 38°06' W 122°16'1 3.3
2018-Aug-12 05:00N 38°05' W 122°15'1326.7
2018-Aug-12 04:30N 37°54' W 122°25'713.2
2018-Aug-12 04:01N 37°48' W 122°23'2 3.0
2018-Aug-12 03:31N 37°49' W 122°25'1427.1
2018-Aug-12 03:01N 38°02' W 122°21'611.0
2018-Aug-12 02:30N 38°06' W 122°16'0 0.0
2018-Aug-12 02:00N 38°06' W 122°16'1 1.8
2018-Aug-12 01:30N 38°05' W 122°15'1223.9
2018-Aug-12 01:01N 37°57' W 122°26'918.4
2018-Aug-12 00:30N 37°48' W 122°24'1 2.5
2018-Aug-12 00:01N 37°49' W 122°25'1224.2
2018-Aug-11 23:30N 38°01' W 122°24'815.5
2018-Aug-11 22:59N 38°06' W 122°16'0 0.2
2018-Aug-11 21:13N 38°06' W 122°16'0 0.6
2018-Aug-11 20:40N 38°06' W 122°16'2 9.1
2018-Aug-11 20:30N 38°05' W 122°15'1529.8
2018-Aug-11 20:00N 37°52' W 122°24'4 8.3
2018-Aug-11 19:31N 37°48' W 122°24'1224.3
2018-Aug-11 19:01N 37°60' W 122°24'918.1
2018-Aug-11 18:30N 38°06' W 122°16'1 0.9
2018-Aug-11 17:52N 38°05' W 122°15'720.9
2018-Aug-11 17:30N 38°01' W 122°23'1326.3
2018-Aug-11 17:00N 37°48' W 122°24'1 2.4
2018-Aug-11 16:30N 37°49' W 122°25'1122.9
2018-Aug-11 16:00N 38°00' W 122°25'918.2
2018-Aug-11 15:30N 38°06' W 122°16'0 0.0
2018-Aug-11 07:37N 38°06' W 122°16'0 2.6
2018-Aug-11 07:30N 38°06' W 122°16'3 5.6
2018-Aug-11 07:00N 38°03' W 122°17'1530.6
2018-Aug-11 06:30N 37°49' W 122°23'2 4.4
2018-Aug-11 06:00N 37°47' W 122°23'0 0.0
2018-Aug-11 05:30N 37°47' W 122°23'0 0.0
2018-Aug-11 05:00N 37°47' W 122°23'917.3
2018-Aug-11 04:30N 37°55' W 122°27'1427.5
2018-Aug-11 04:00N 38°05' W 122°15'1 2.4
2018-Aug-11 03:27N 38°06' W 122°16'2 4.1
2018-Aug-11 03:01N 38°05' W 122°15'1427.7
2018-Aug-11 02:30N 37°53' W 122°25'5 9.4
2018-Aug-11 02:01N 37°49' W 122°24'2 4.2
2018-Aug-11 01:31N 37°50' W 122°25'1530.7
2018-Aug-11 01:01N 38°04' W 122°16'2 4.1
2018-Aug-11 00:30N 38°06' W 122°16'714.3
2018-Aug-11 00:00N 38°01' W 122°22'1326.5
2018-Aug-10 23:30N 37°48' W 122°24'2 3.3
2018-Aug-10 23:01N 37°49' W 122°24'1529.2
2018-Aug-10 22:31N 38°03' W 122°18'3 6.1
2018-Aug-10 21:59N 38°06' W 122°16'0 0.7
2018-Aug-10 21:30N 38°06' W 122°16'0 0.0
2018-Aug-10 21:00N 38°06' W 122°16'0 0.0
2018-Aug-10 20:30N 38°06' W 122°16'0 0.0
2018-Aug-10 20:00N 38°06' W 122°16'0 0.1
2018-Aug-10 19:29N 38°06' W 122°16'1 1.4
2018-Aug-10 18:50N 38°05' W 122°15'721.5
2018-Aug-10 18:31N 38°01' W 122°22'1325.6
2018-Aug-10 18:00N 37°49' W 122°25'1 2.4
2018-Aug-10 17:30N 37°48' W 122°24'1326.4
2018-Aug-10 17:00N 38°01' W 122°23'7 9.8
2018-Aug-10 16:15N 38°06' W 122°16'1 5.2
2018-Aug-10 15:59N 38°05' W 122°15'1328.2
2018-Aug-10 15:30N 37°54' W 122°25'713.0
2018-Aug-10 15:00N 37°48' W 122°24'1223.0
2018-Aug-10 14:30N 37°59' W 122°25'1018.5
2018-Aug-10 13:58N 38°06' W 122°16'0 0.0
2018-Aug-10 08:00N 38°06' W 122°16'0 0.0
2018-Aug-10 07:28N 38°06' W 122°16'0 0.0
2018-Aug-10 07:00N 38°06' W 122°16'0 0.0
2018-Aug-10 06:30N 38°06' W 122°16'0 0.0
2018-Aug-10 05:03N 38°06' W 122°16'0 0.0
2018-Aug-10 05:00N 38°06' W 122°16'0 0.0
2018-Aug-10 04:30N 38°06' W 122°16'0 0.0
2018-Aug-10 04:00N 38°06' W 122°16'0 0.0
2018-Aug-10 03:30N 38°06' W 122°16'0 0.0
2018-Aug-10 03:00N 38°06' W 122°16'0 0.0
2018-Aug-10 02:26N 38°06' W 122°16'0 0.7
2018-Aug-10 02:00N 38°06' W 122°16'613.1
2018-Aug-10 01:31N 38°01' W 122°22'1427.4
2018-Aug-10 01:00N 37°48' W 122°24'3 6.3
2018-Aug-10 00:31N 37°51' W 122°24'1529.8
2018-Aug-10 00:01N 38°04' W 122°16'2 4.0
2018-Aug-09 23:30N 38°06' W 122°16'714.2
2018-Aug-09 23:00N 38°01' W 122°22'1326.7
2018-Aug-09 22:30N 37°48' W 122°24'1 2.5
2018-Aug-09 22:01N 37°49' W 122°25'1121.1
2018-Aug-09 21:31N 37°59' W 122°26'1013.2
2018-Aug-09 20:43N 38°06' W 122°16'2 1.2
2018-Aug-09 19:27N 38°05' W 122°15'1328.8
2018-Aug-09 19:01N 37°56' W 122°26'815.8
2018-Aug-09 18:30N 37°48' W 122°24'1325.5
2018-Aug-09 18:00N 38°00' W 122°24'810.3
2018-Aug-09 17:12N 38°06' W 122°16'0 0.0
2018-Aug-09 16:59N 38°06' W 122°16'0 0.7
2018-Aug-09 16:29N 38°06' W 122°16'1225.5
2018-Aug-09 16:00N 37°56' W 122°26'917.6
2018-Aug-09 15:30N 37°48' W 122°23'510.4
2018-Aug-09 15:00N 37°48' W 122°17'510.7
2018-Aug-09 14:31N 37°48' W 122°24'1122.8
2018-Aug-09 14:00N 37°59' W 122°26'10 1.0
2018-Aug-09 03:17N 38°06' W 122°16'0 0.0
2018-Aug-09 02:53N 38°06' W 122°16'0 0.0
2018-Aug-09 02:29N 38°06' W 122°16'0 0.5
2018-Aug-09 01:54N 38°06' W 122°16'615.1
2018-Aug-09 01:30N 38°02' W 122°21'1427.8
2018-Aug-09 01:00N 37°48' W 122°24'2 3.3
2018-Aug-09 00:30N 37°49' W 122°24'1529.7
2018-Aug-09 00:00N 38°03' W 122°18'3 5.1
2018-Aug-08 23:24N 38°06' W 122°16'614.0
2018-Aug-08 23:00N 38°02' W 122°21'1428.6
2018-Aug-08 22:30N 37°48' W 122°24'1 2.4
2018-Aug-08 22:00N 37°49' W 122°25'918.6
2018-Aug-08 21:31N 37°58' W 122°27'12 5.2
2018-Aug-08 19:15N 38°06' W 122°16'1 1.8
2018-Aug-08 18:48N 38°05' W 122°15'621.0
2018-Aug-08 18:30N 38°02' W 122°22'1326.7
2018-Aug-08 18:01N 37°49' W 122°25'1 2.4
2018-Aug-08 17:30N 37°48' W 122°24'1326.4
2018-Aug-08 17:00N 38°01' W 122°23'7 7.2
2018-Aug-08 16:00N 38°05' W 122°15'1327.2
2018-Aug-08 15:30N 37°54' W 122°25'713.3
2018-Aug-08 15:00N 37°48' W 122°24'1225.0
2018-Aug-08 14:31N 37°60' W 122°24'912.7
2018-Aug-08 13:48N 38°06' W 122°16'0 0.0
2018-Aug-08 04:36N 38°06' W 122°16'0 2.5
2018-Aug-08 04:30N 38°06' W 122°16'1 2.1
2018-Aug-08 04:00N 38°05' W 122°15'1326.5
2018-Aug-08 03:30N 37°55' W 122°25'713.7
2018-Aug-08 03:00N 37°48' W 122°24'816.7
2018-Aug-08 02:31N 37°56' W 122°27'1326.2
2018-Aug-08 02:00N 38°05' W 122°15'1 1.9
2018-Aug-08 01:30N 38°06' W 122°16'1 1.3
2018-Aug-08 01:00N 38°05' W 122°15'1224.0
2018-Aug-08 00:31N 37°57' W 122°26'918.6
2018-Aug-08 00:00N 37°48' W 122°24'1223.9
2018-Aug-07 23:31N 37°60' W 122°25'1019.0
2018-Aug-07 23:00N 38°06' W 122°16'0 0.2
2018-Aug-07 21:02N 38°06' W 122°16'0 2.8
2018-Aug-07 21:00N 38°06' W 122°16'3 6.1
2018-Aug-07 20:31N 38°03' W 122°17'3 5.9
2018-Aug-07 20:01N 38°04' W 122°13'1529.6
2018-Aug-07 19:30N 37°51' W 122°24'713.5
2018-Aug-07 19:01N 37°45' W 122°21'1326.6
2018-Aug-07 18:30N 37°58' W 122°27'714.0
2018-Aug-07 18:00N 38°02' W 122°20'5 9.6
2018-Aug-07 17:30N 38°05' W 122°15'  

Dump ship's entire track history